Time;durP1;ratioP1;P1;durP2;ratioP2;P2;SDS_P1;SDS_P2;PMS_P1;PMS_P2;Temp;Humidity;BMP_temperature;BMP_pressure;BME280_temperature;BME280_humidity;BME280_pressure;Samples;Min_cycle;Max_cycle;Signal;HPM_P1;HPM_P2
2023/10/21 00:01:29;;;;;;;;;;;;;;;;;;5046325;28;19914;-59
2023/10/21 00:03:55;;;;;;;;;;;;;;;;;;5045984;28;19959;-58
2023/10/21 00:06:21;;;;;;;;;;;;;;;;;;5035122;28;19927;-58
2023/10/21 00:08:47;;;;;;;;;;;;;;;;;;5036447;28;19968;-58
2023/10/21 00:11:13;;;;;;;;;;;;;;;;;;5048996;28;20380;-58
2023/10/21 00:13:39;;;;;;;;;;;;;;;;;;5052999;28;20007;-57
2023/10/21 00:16:05;;;;;;;;;;;;;;;;;;5050290;28;20044;-58
2023/10/21 00:18:31;;;;;;;;;;;;;;;;;;5049790;28;19913;-58
2023/10/21 00:20:57;;;;;;;;;;;;;;;;;;5042998;28;19917;-58
2023/10/21 00:23:23;;;;;;;;;;;;;;;;;;5038461;28;20356;-58
2023/10/21 00:25:49;;;;;;;;;;;;;;;;;;5049700;28;20030;-58
2023/10/21 00:28:15;;;;;;;;;;;;;;;;;;5044529;28;20380;-58
2023/10/21 00:30:41;;;;;;;;;;;;;;;;;;5047949;28;20335;-58
2023/10/21 00:33:07;;;;;;;;;;;;;;;;;;5045341;28;20365;-58
2023/10/21 00:35:33;;;;;;;;;;;;;;;;;;5054687;28;19959;-57
2023/10/21 00:37:58;;;;;;;;;;;;;;;;;;5038182;28;19912;-57
2023/10/21 00:40:24;;;;;;;;;;;;;;;;;;5041689;28;19917;-58
2023/10/21 00:42:50;;;;;;;;;;;;;;;;;;5036861;28;19960;-57
2023/10/21 00:45:16;;;;;;;;;;;;;;;;;;5052707;28;19924;-58
2023/10/21 00:47:42;;;;;;;;;;;;;;;;;;5034589;28;19967;-57
2023/10/21 00:50:08;;;;;;;;;;;;;;;;;;5034724;28;19913;-58
2023/10/21 00:52:34;;;;;;;;;;;;;;;;;;5040833;28;19914;-58
2023/10/21 00:55:00;;;;;;;;;;;;;;;;;;5041039;28;19963;-58
2023/10/21 00:57:26;;;;;;;;;;;;;;;;;;5041982;28;19996;-57
2023/10/21 00:59:52;;;;;;;;;;;;;;;;;;5045063;28;20551;-58
2023/10/21 01:02:18;;;;;;;;;;;;;;;;;;5046464;28;19948;-58
2023/10/21 01:04:43;;;;;;;;;;;;;;;;;;5035109;28;19923;-58
2023/10/21 01:07:10;;;;;;;;;;;;;;;;;;5045247;28;19912;-58
2023/10/21 01:09:37;;;;;;;;;;;;;;;;;;5039784;28;19917;-58
2023/10/21 01:12:03;;;;;;;;;;;;;;;;;;5043847;28;19917;-58
2023/10/21 01:14:29;;;;;;;;;;;;;;;;;;5042729;28;20307;-58
2023/10/21 01:16:55;;;;;;;;;;;;;;;;;;5042795;28;19952;-57
2023/10/21 01:19:20;;;;;;;;;;;;;;;;;;5043059;28;19963;-58
2023/10/21 01:21:46;;;;;;;;;;;;;;;;;;5051123;28;20424;-58
2023/10/21 01:24:12;;;;;;;;;;;;;;;;;;5048670;28;19929;-58
2023/10/21 01:26:38;;;;;;;;;;;;;;;;;;5044943;28;19924;-58
2023/10/21 01:29:04;;;;;;;;;;;;;;;;;;5049517;28;19982;-58
2023/10/21 01:31:32;;;;;;;;;;;;;;;;;;5038824;28;20361;-57
2023/10/21 01:33:58;;;;;;;;;;;;;;;;;;5037866;28;19916;-58
2023/10/21 01:36:24;;;;;;;;;;;;;;;;;;5048189;28;19913;-58
2023/10/21 01:38:50;;;;;;;;;;;;;;;;;;5040898;28;20346;-58
2023/10/21 01:41:16;;;;;;;;;;;;;;;;;;5047272;28;19909;-57
2023/10/21 01:43:42;;;;;;;;;;;;;;;;;;5045508;28;19963;-58
2023/10/21 01:46:08;;;;;;;;;;;;;;;;;;5051420;28;19962;-58
2023/10/21 01:48:33;;;;;;;;;;;;;;;;;;5047079;28;19916;-59
2023/10/21 01:51:00;;;;;;;;;;;;;;;;;;5036681;28;20946;-57
2023/10/21 01:53:26;;;;;;;;;;;;;;;;;;5047352;28;19916;-57
2023/10/21 01:55:52;;;;;;;;;;;;;;;;;;5050558;28;20361;-58
2023/10/21 01:58:18;;;;;;;;;;;;;;;;;;5033357;28;19917;-58
2023/10/21 02:00:44;;;;;;;;;;;;;;;;;;5045377;28;20016;-57
2023/10/21 02:03:10;;;;;;;;;;;;;;;;;;5040887;28;19913;-58
2023/10/21 02:05:36;;;;;;;;;;;;;;;;;;5050568;28;20015;-58
2023/10/21 02:08:02;;;;;;;;;;;;;;;;;;5043776;28;20000;-59
2023/10/21 02:10:27;;;;;;;;;;;;;;;;;;5051068;28;19917;-58
2023/10/21 02:12:53;;;;;;;;;;;;;;;;;;5051936;28;19924;-59
2023/10/21 02:15:19;;;;;;;;;;;;;;;;;;5052926;28;20268;-60
2023/10/21 02:17:45;;;;;;;;;;;;;;;;;;5046637;28;19924;-60
2023/10/21 02:20:14;;;;;;;;;;;;;;;;;;5044749;28;20428;-59
2023/10/21 02:22:40;;;;;;;;;;;;;;;;;;5046998;28;19912;-59
2023/10/21 02:25:06;;;;;;;;;;;;;;;;;;5047498;28;19921;-60
2023/10/21 02:27:31;;;;;;;;;;;;;;;;;;5035114;28;19909;-59
2023/10/21 02:29:58;;;;;;;;;;;;;;;;;;5042890;28;19943;-60
2023/10/21 02:32:24;;;;;;;;;;;;;;;;;;5051304;28;20300;-60
2023/10/21 02:34:50;;;;;;;;;;;;;;;;;;5032721;28;19913;-59
2023/10/21 02:37:16;;;;;;;;;;;;;;;;;;5040006;28;19948;-60
2023/10/21 02:39:41;;;;;;;;;;;;;;;;;;5050112;28;19919;-59
2023/10/21 02:42:07;;;;;;;;;;;;;;;;;;5042587;28;19913;-59
2023/10/21 02:44:33;;;;;;;;;;;;;;;;;;5049572;28;19931;-60
2023/10/21 02:46:59;;;;;;;;;;;;;;;;;;5050982;28;20387;-59
2023/10/21 02:49:25;;;;;;;;;;;;;;;;;;5040750;28;20015;-60
2023/10/21 02:51:51;;;;;;;;;;;;;;;;;;5045347;28;19967;-60
2023/10/21 02:54:17;;;;;;;;;;;;;;;;;;5050674;28;19974;-60
2023/10/21 02:56:43;;;;;;;;;;;;;;;;;;5045846;28;19924;-59
2023/10/21 02:59:09;;;;;;;;;;;;;;;;;;5036849;28;19913;-60
2023/10/21 03:01:35;;;;;;;;;;;;;;;;;;5045347;28;19924;-59
2023/10/21 03:04:01;;;;;;;;;;;;;;;;;;5031560;28;19944;-58
2023/10/21 03:06:26;;;;;;;;;;;;;;;;;;5043736;28;20381;-60
2023/10/21 03:08:52;;;;;;;;;;;;;;;;;;5047418;28;19919;-60
2023/10/21 03:11:18;;;;;;;;;;;;;;;;;;5046760;28;20362;-60
2023/10/21 03:13:44;;;;;;;;;;;;;;;;;;5041895;28;20356;-60
2023/10/21 03:16:10;;;;;;;;;;;;;;;;;;5048736;28;20008;-60
2023/10/21 03:18:36;;;;;;;;;;;;;;;;;;5040510;28;19948;-59
2023/10/21 03:21:02;;;;;;;;;;;;;;;;;;5045626;28;19913;-59
2023/10/21 03:23:28;;;;;;;;;;;;;;;;;;5036842;28;19917;-58
2023/10/21 03:25:54;;;;;;;;;;;;;;;;;;5038839;28;19920;-59
2023/10/21 03:28:21;;;;;;;;;;;;;;;;;;5042033;28;19967;-59
2023/10/21 03:30:47;;;;;;;;;;;;;;;;;;5048985;28;20010;-59
2023/10/21 03:33:13;;;;;;;;;;;;;;;;;;5051380;28;20373;-59
2023/10/21 03:35:39;;;;;;;;;;;;;;;;;;5051661;28;19917;-59
2023/10/21 03:38:05;;;;;;;;;;;;;;;;;;5050034;28;19948;-59
2023/10/21 03:40:31;;;;;;;;;;;;;;;;;;5044817;28;19913;-59
2023/10/21 03:42:57;;;;;;;;;;;;;;;;;;5032407;28;20032;-59
2023/10/21 03:45:23;;;;;;;;;;;;;;;;;;5035078;28;19952;-59
2023/10/21 03:47:49;;;;;;;;;;;;;;;;;;5041999;28;20421;-59
2023/10/21 03:50:15;;;;;;;;;;;;;;;;;;5054412;28;19913;-59
2023/10/21 03:52:41;;;;;;;;;;;;;;;;;;5046775;28;19935;-59
2023/10/21 03:55:07;;;;;;;;;;;;;;;;;;5055628;28;19920;-59
2023/10/21 03:57:33;;;;;;;;;;;;;;;;;;5040298;28;19917;-59
2023/10/21 04:00:00;;;;;;;;;;;;;;;;;;5052216;28;19927;-59
2023/10/21 04:02:25;;;;;;;;;;;;;;;;;;5038414;28;19946;-59
2023/10/21 04:04:51;;;;;;;;;;;;;;;;;;5048617;28;19924;-58
2023/10/21 04:07:17;;;;;;;;;;;;;;;;;;5054243;28;19974;-59
2023/10/21 04:09:43;;;;;;;;;;;;;;;;;;5052007;28;19913;-59
2023/10/21 04:12:09;;;;;;;;;;;;;;;;;;5050446;28;20400;-59
2023/10/21 04:14:36;;;;;;;;;;;;;;;;;;5055025;28;19920;-60
2023/10/21 04:17:02;;;;;;;;;;;;;;;;;;5050688;28;19945;-59
2023/10/21 04:19:28;;;;;;;;;;;;;;;;;;5053917;28;20364;-58
2023/10/21 04:21:54;;;;;;;;;;;;;;;;;;5050301;28;19952;-58
2023/10/21 04:24:19;;;;;;;;;;;;;;;;;;5051028;28;19932;-59
2023/10/21 04:26:46;;;;;;;;;;;;;;;;;;5052840;28;19960;-59
2023/10/21 04:29:12;;;;;;;;;;;;;;;;;;5051677;28;20356;-59
2023/10/21 04:31:39;;;;;;;;;;;;;;;;;;5049888;28;19919;-59
2023/10/21 04:34:05;;;;;;;;;;;;;;;;;;5048625;28;19920;-62
2023/10/21 04:36:31;;;;;;;;;;;;;;;;;;5048171;28;19940;-61
2023/10/21 04:38:57;;;;;;;;;;;;;;;;;;5053914;28;20011;-61
2023/10/21 04:41:23;;;;;;;;;;;;;;;;;;5049034;28;19939;-61
2023/10/21 04:43:50;;;;;;;;;;;;;;;;;;5050577;28;19948;-61
2023/10/21 04:46:17;;;;;;;;;;;;;;;;;;5053442;28;19916;-60
2023/10/21 04:48:43;;;;;;;;;;;;;;;;;;5055914;28;19931;-61
2023/10/21 04:51:09;;;;;;;;;;;;;;;;;;5051526;28;19913;-61
2023/10/21 04:53:35;;;;;;;;;;;;;;;;;;5050478;28;19930;-61
2023/10/21 04:56:02;;;;;;;;;;;;;;;;;;5054347;28;19948;-61
2023/10/21 04:58:28;;;;;;;;;;;;;;;;;;5052281;28;20372;-61
2023/10/21 05:00:54;;;;;;;;;;;;;;;;;;5049294;28;19917;-60
2023/10/21 05:03:20;;;;;;;;;;;;;;;;;;5048136;28;19916;-61
2023/10/21 05:05:46;;;;;;;;;;;;;;;;;;5053531;28;20375;-61
2023/10/21 05:08:12;;;;;;;;;;;;;;;;;;5052176;28;20077;-61
2023/10/21 05:10:38;;;;;;;;;;;;;;;;;;5049803;28;19913;-61
2023/10/21 05:13:04;;;;;;;;;;;;;;;;;;5051428;28;19913;-60
2023/10/21 05:15:30;;;;;;;;;;;;;;;;;;5053579;28;19919;-60
2023/10/21 05:17:57;;;;;;;;;;;;;;;;;;5051013;28;19952;-61
2023/10/21 05:20:23;;;;;;;;;;;;;;;;;;5036865;28;19913;-61
2023/10/21 05:22:49;;;;;;;;;;;;;;;;;;5048747;28;19944;-61
2023/10/21 05:25:15;;;;;;;;;;;;;;;;;;5053631;28;20346;-61
2023/10/21 05:27:41;;;;;;;;;;;;;;;;;;5053720;28;20004;-61
2023/10/21 05:30:07;;;;;;;;;;;;;;;;;;5048962;28;19917;-60
2023/10/21 05:32:32;;;;;;;;;;;;;;;;;;5045249;28;19916;-61
2023/10/21 05:34:59;;;;;;;;;;;;;;;;;;5048596;28;19963;-61
2023/10/21 05:37:26;;;;;;;;;;;;;;;;;;5043922;28;19913;-61
2023/10/21 05:39:51;;;;;;;;;;;;;;;;;;5046454;28;20357;-61
2023/10/21 05:42:17;;;;;;;;;;;;;;;;;;5043656;28;19955;-59
2023/10/21 05:44:43;;;;;;;;;;;;;;;;;;5042913;28;19917;-59
2023/10/21 05:47:09;;;;;;;;;;;;;;;;;;5055252;28;19934;-59
2023/10/21 05:49:35;;;;;;;;;;;;;;;;;;5052985;28;19920;-58
2023/10/21 05:52:01;;;;;;;;;;;;;;;;;;5050987;28;20114;-59
2023/10/21 05:54:27;;;;;;;;;;;;;;;;;;5051874;28;19916;-59
2023/10/21 05:56:53;;;;;;;;;;;;;;;;;;5047857;28;19917;-58
2023/10/21 05:59:19;;;;;;;;;;;;;;;;;;5048968;28;20344;-59
2023/10/21 06:01:45;;;;;;;;;;;;;;;;;;5051295;28;20000;-59
2023/10/21 06:04:10;;;;;;;;;;;;;;;;;;5049019;28;19912;-60
2023/10/21 06:06:36;;;;;;;;;;;;;;;;;;5050788;28;19978;-58
2023/10/21 06:09:04;;;;;;;;;;;;;;;;;;5047825;28;19913;-58
2023/10/21 06:11:29;;;;;;;;;;;;;;;;;;5045770;28;19913;-59
2023/10/21 06:13:55;;;;;;;;;;;;;;;;;;5043125;28;19955;-59
2023/10/21 06:16:21;;;;;;;;;;;;;;;;;;5050555;28;20400;-57
2023/10/21 06:18:47;;;;;;;;;;;;;;;;;;5050787;28;20008;-59
2023/10/21 06:21:13;;;;;;;;;;;;;;;;;;5046851;28;19916;-58
2023/10/21 06:23:39;;;;;;;;;;;;;;;;;;5048327;28;19963;-59
2023/10/21 06:26:05;;;;;;;;;;;;;;;;;;5047998;28;20007;-59
2023/10/21 06:28:31;;;;;;;;;;;;;;;;;;5040384;28;19955;-59
2023/10/21 06:30:57;;;;;;;;;;;;;;;;;;5049689;28;20287;-59
2023/10/21 06:33:23;;;;;;;;;;;;;;;;;;5043115;28;19966;-58
2023/10/21 06:35:49;;;;;;;;;;;;;;;;;;5048672;28;19920;-59
2023/10/21 06:38:15;;;;;;;;;;;;;;;;;;5041212;28;19991;-58
2023/10/21 06:40:41;;;;;;;;;;;;;;;;;;5048853;28;19913;-58
2023/10/21 06:43:07;;;;;;;;;;;;;;;;;;5021349;28;19955;-59
2023/10/21 06:45:33;;;;;;;;;;;;;;;;;;5041142;28;19987;-60
2023/10/21 06:48:01;;;;;;;;;;;;;;;;;;5046563;28;19920;-59
2023/10/21 06:50:28;;;;;;;;;;;;;;;;;;5043531;28;20385;-59
2023/10/21 06:52:54;;;;;;;;;;;;;;;;;;5043305;28;19989;-61
2023/10/21 06:55:19;;;;;;;;;;;;;;;;;;5054917;28;19921;-61
2023/10/21 06:57:45;;;;;;;;;;;;;;;;;;5048666;28;19994;-61
2023/10/21 07:00:12;;;;;;;;;;;;;;;;;;5045384;28;20667;-61
2023/10/21 07:02:38;;;;;;;;;;;;;;;;;;5040696;28;19913;-61
2023/10/21 07:05:09;;;;;;;;;;;;;;;;;;5046990;28;19924;-60
2023/10/21 07:07:35;;;;;;;;;;;;;;;;;;5049335;28;19913;-61
2023/10/21 07:10:01;;;;;;;;;;;;;;;;;;5045591;28;20017;-60
2023/10/21 07:12:27;;;;;;;;;;;;;;;;;;5049811;28;19921;-61
2023/10/21 07:14:53;;;;;;;;;;;;;;;;;;5046836;28;20390;-61
2023/10/21 07:17:19;;;;;;;;;;;;;;;;;;5042816;28;19913;-61
2023/10/21 07:19:45;;;;;;;;;;;;;;;;;;5048650;28;19912;-61
2023/10/21 07:22:11;;;;;;;;;;;;;;;;;;5040564;28;19942;-60
2023/10/21 07:24:36;;;;;;;;;;;;;;;;;;5040085;28;19928;-61
2023/10/21 07:27:02;;;;;;;;;;;;;;;;;;5051611;28;20432;-61
2023/10/21 07:29:28;;;;;;;;;;;;;;;;;;5050380;28;19993;-60
2023/10/21 07:31:54;;;;;;;;;;;;;;;;;;5049377;28;19941;-61
2023/10/21 07:34:22;;;;;;;;;;;;;;;;;;5045137;28;19917;-61
2023/10/21 07:36:48;;;;;;;;;;;;;;;;;;5049312;28;19963;-61
2023/10/21 07:39:14;;;;;;;;;;;;;;;;;;5049260;28;20396;-60
2023/10/21 07:41:43;;;;;;;;;;;;;;;;;;5049975;28;20384;-61
2023/10/21 07:44:09;;;;;;;;;;;;;;;;;;5038177;28;19967;-61
2023/10/21 07:46:35;;;;;;;;;;;;;;;;;;5048032;28;19917;-61
2023/10/21 07:49:03;;;;;;;;;;;;;;;;;;5041127;28;19944;-61
2023/10/21 07:51:29;;;;;;;;;;;;;;;;;;5046956;28;19913;-60
2023/10/21 07:53:55;;;;;;;;;;;;;;;;;;5048493;28;20452;-61
2023/10/21 07:56:21;;;;;;;;;;;;;;;;;;5043602;28;20012;-61
2023/10/21 07:58:47;;;;;;;;;;;;;;;;;;5045352;28;19917;-61
2023/10/21 08:01:13;;;;;;;;;;;;;;;;;;5041331;28;20369;-61
2023/10/21 08:03:39;;;;;;;;;;;;;;;;;;5049548;28;19948;-58
2023/10/21 08:06:07;;;;;;;;;;;;;;;;;;5033420;28;19967;-59
2023/10/21 08:08:34;;;;;;;;;;;;;;;;;;5046572;28;19917;-59
2023/10/21 08:11:00;;;;;;;;;;;;;;;;;;5046354;28;20269;-59
2023/10/21 08:13:26;;;;;;;;;;;;;;;;;;5042517;28;19927;-57
2023/10/21 08:15:51;;;;;;;;;;;;;;;;;;5048952;28;19959;-58
2023/10/21 08:18:17;;;;;;;;;;;;;;;;;;5045122;28;19925;-58
2023/10/21 08:20:43;;;;;;;;;;;;;;;;;;5039064;28;19986;-58
2023/10/21 08:23:09;;;;;;;;;;;;;;;;;;5045881;28;20487;-59
2023/10/21 08:25:36;;;;;;;;;;;;;;;;;;5049930;28;19927;-58
2023/10/21 08:28:03;;;;;;;;;;;;;;;;;;5052854;28;19921;-58
2023/10/21 08:30:29;;;;;;;;;;;;;;;;;;5038768;28;19916;-58
2023/10/21 08:32:55;;;;;;;;;;;;;;;;;;5047944;28;19913;-56
2023/10/21 08:35:20;;;;;;;;;;;;;;;;;;5047924;28;20002;-58
2023/10/21 08:37:46;;;;;;;;;;;;;;;;;;5046046;28;19917;-59
2023/10/21 08:40:12;;;;;;;;;;;;;;;;;;5033816;28;19920;-58
2023/10/21 08:42:38;;;;;;;;;;;;;;;;;;5048404;28;19956;-58
2023/10/21 08:45:06;;;;;;;;;;;;;;;;;;5044627;28;20364;-58
2023/10/21 08:47:32;;;;;;;;;;;;;;;;;;5041461;28;20011;-58
2023/10/21 08:49:58;;;;;;;;;;;;;;;;;;5038913;28;20012;-57
2023/10/21 08:52:24;;;;;;;;;;;;;;;;;;5051591;28;19963;-58
2023/10/21 08:54:49;;;;;;;;;;;;;;;;;;5047242;28;20066;-58
2023/10/21 08:57:16;;;;;;;;;;;;;;;;;;5046630;28;20066;-58
2023/10/21 08:59:42;;;;;;;;;;;;;;;;;;5052615;28;20287;-58
2023/10/21 09:02:08;;;;;;;;;;;;;;;;;;5051849;28;19912;-58
2023/10/21 09:04:34;;;;;;;;;;;;;;;;;;5045839;28;19947;-58
2023/10/21 09:07:00;;;;;;;;;;;;;;;;;;5042629;28;20396;-58
2023/10/21 09:09:29;;;;;;;;;;;;;;;;;;5047584;28;19916;-58
2023/10/21 09:11:55;;;;;;;;;;;;;;;;;;5049160;28;20245;-58
2023/10/21 09:14:21;;;;;;;;;;;;;;;;;;5047143;28;19921;-58
2023/10/21 09:16:47;;;;;;;;;;;;;;;;;;5047831;28;20634;-59
2023/10/21 09:19:14;;;;;;;;;;;;;;;;;;5045937;28;19912;-59
2023/10/21 09:21:41;;;;;;;;;;;;;;;;;;5044157;28;19957;-59
2023/10/21 09:24:06;;;;;;;;;;;;;;;;;;5045318;28;19920;-58
2023/10/21 09:26:32;;;;;;;;;;;;;;;;;;5048421;28;20395;-58
2023/10/21 09:28:58;;;;;;;;;;;;;;;;;;5048117;28;20029;-59
2023/10/21 09:31:24;;;;;;;;;;;;;;;;;;5049355;28;19916;-59
2023/10/21 09:33:50;;;;;;;;;;;;;;;;;;5044210;28;19935;-58
2023/10/21 09:36:18;;;;;;;;;;;;;;;;;;5041283;28;19914;-58
2023/10/21 09:38:44;;;;;;;;;;;;;;;;;;5041219;28;19912;-58
2023/10/21 09:41:09;;;;;;;;;;;;;;;;;;5050191;28;20388;-58
2023/10/21 09:43:35;;;;;;;;;;;;;;;;;;5046942;28;19912;-59
2023/10/21 09:46:04;;;;;;;;;;;;;;;;;;5050970;28;20365;-58
2023/10/21 09:48:30;;;;;;;;;;;;;;;;;;5042480;28;19913;-57
2023/10/21 09:50:56;;;;;;;;;;;;;;;;;;5048768;28;20003;-59
2023/10/21 09:53:22;;;;;;;;;;;;;;;;;;5044351;28;19917;-58
2023/10/21 09:55:48;;;;;;;;;;;;;;;;;;5042957;28;20405;-58
2023/10/21 09:58:14;;;;;;;;;;;;;;;;;;5039622;28;19919;-58
2023/10/21 10:00:40;;;;;;;;;;;;;;;;;;5045487;28;19940;-58
2023/10/21 10:03:06;;;;;;;;;;;;;;;;;;5048890;28;19912;-58
2023/10/21 10:05:32;;;;;;;;;;;;;;;;;;5046410;28;20437;-58
2023/10/21 10:07:58;;;;;;;;;;;;;;;;;;5049275;28;19917;-58
2023/10/21 10:10:25;;;;;;;;;;;;;;;;;;5046256;28;20359;-58
2023/10/21 10:12:52;;;;;;;;;;;;;;;;;;5045157;28;19982;-58
2023/10/21 10:15:18;;;;;;;;;;;;;;;;;;5045556;28;19924;-58
2023/10/21 10:17:43;;;;;;;;;;;;;;;;;;5047525;28;20357;-58
2023/10/21 10:20:09;;;;;;;;;;;;;;;;;;5041763;28;19923;-58
2023/10/21 10:22:36;;;;;;;;;;;;;;;;;;5049224;28;20007;-58
2023/10/21 10:25:02;;;;;;;;;;;;;;;;;;5052225;28;19921;-58
2023/10/21 10:27:30;;;;;;;;;;;;;;;;;;5051270;28;20090;-58
2023/10/21 10:29:57;;;;;;;;;;;;;;;;;;5047166;28;19999;-58
2023/10/21 10:32:25;;;;;;;;;;;;;;;;;;5046611;28;19944;-58
2023/10/21 10:34:52;;;;;;;;;;;;;;;;;;5045548;28;19927;-58
2023/10/21 10:37:18;;;;;;;;;;;;;;;;;;5044528;28;19924;-57
2023/10/21 10:39:44;;;;;;;;;;;;;;;;;;5041972;28;19967;-58
2023/10/21 10:42:10;;;;;;;;;;;;;;;;;;5043881;28;19989;-58
2023/10/21 10:44:37;;;;;;;;;;;;;;;;;;5044387;28;19974;-59
2023/10/21 10:47:04;;;;;;;;;;;;;;;;;;5046427;28;19983;-58
2023/10/21 10:49:30;;;;;;;;;;;;;;;;;;5048366;28;20373;-57
2023/10/21 10:51:57;;;;;;;;;;;;;;;;;;5044154;28;19959;-58
2023/10/21 10:54:23;;;;;;;;;;;;;;;;;;5048720;28;19948;-58
2023/10/21 10:56:50;;;;;;;;;;;;;;;;;;5049160;28;20363;-58
2023/10/21 10:59:19;;;;;;;;;;;;;;;;;;5045312;28;19928;-57
2023/10/21 11:01:45;;;;;;;;;;;;;;;;;;5040708;28;19916;-58
2023/10/21 11:04:11;;;;;;;;;;;;;;;;;;5040642;28;19920;-57
2023/10/21 11:06:37;;;;;;;;;;;;;;;;;;5038156;28;20367;-58
2023/10/21 11:09:06;;;;;;;;;;;;;;;;;;5042188;28;19992;-57
2023/10/21 11:11:32;;;;;;;;;;;;;;;;;;5044738;28;20407;-59
2023/10/21 11:13:59;;;;;;;;;;;;;;;;;;5042839;28;19913;-58
2023/10/21 11:16:25;;;;;;;;;;;;;;;;;;5042077;28;19967;-58
2023/10/21 11:18:51;;;;;;;;;;;;;;;;;;5050498;28;19923;-58
2023/10/21 11:21:17;;;;;;;;;;;;;;;;;;5043833;28;19924;-58
2023/10/21 11:23:43;;;;;;;;;;;;;;;;;;5048305;28;19921;-58
2023/10/21 11:26:09;;;;;;;;;;;;;;;;;;5037670;28;20284;-58
2023/10/21 11:28:36;;;;;;;;;;;;;;;;;;5050794;28;20440;-58
2023/10/21 11:31:02;;;;;;;;;;;;;;;;;;5048396;28;20426;-58
2023/10/21 11:33:28;;;;;;;;;;;;;;;;;;5037445;28;19948;-58
2023/10/21 11:35:54;;;;;;;;;;;;;;;;;;5049219;28;20033;-57
2023/10/21 11:38:21;;;;;;;;;;;;;;;;;;5048721;28;19917;-58
2023/10/21 11:40:47;;;;;;;;;;;;;;;;;;5036865;28;20269;-58
2023/10/21 11:43:13;;;;;;;;;;;;;;;;;;5039827;28;19955;-58
2023/10/21 11:45:39;;;;;;;;;;;;;;;;;;5043719;28;19957;-58
2023/10/21 11:48:10;;;;;;;;;;;;;;;;;;5047898;28;19912;-57
2023/10/21 11:50:36;;;;;;;;;;;;;;;;;;5042103;28;19982;-57
2023/10/21 11:53:02;;;;;;;;;;;;;;;;;;5040746;28;20388;-57
2023/10/21 11:55:39;;;;;;;;;;;;;;;;;;5046801;28;20233;-58
2023/10/21 12:03:59;;;;;;;;;;;;;;;;;;5033734;28;19959;-57
2023/10/21 12:10:18;;;;;;;;;;;;;;;;;;5042994;28;19924;-58
2023/10/21 12:15:00;;;;;;;;;;;;;;;;;;5050827;28;19966;-58
2023/10/21 12:26:19;;;;;;;;;;;;;;;;;;5059619;28;19935;-57
2023/10/21 12:36:42;;;;;;;;;;;;;;;;;;5052210;28;19966;-58
2023/10/21 12:41:44;;;;;;;;;;;;;;;;;;5040748;28;19991;-56
2023/10/21 12:44:13;;;;;;;;;;;;;;;;;;5032422;28;19998;-57
2023/10/21 12:46:40;;;;;;;;;;;;;;;;;;5045728;28;20240;-57
2023/10/21 12:49:12;;;;;;;;;;;;;;;;;;5052321;28;19912;-58
2023/10/21 12:51:38;;;;;;;;;;;;;;;;;;5042127;28;20563;-58
2023/10/21 12:54:09;;;;;;;;;;;;;;;;;;5050640;28;19912;-57
2023/10/21 12:56:35;;;;;;;;;;;;;;;;;;5043532;28;19919;-57
2023/10/21 12:59:01;;;;;;;;;;;;;;;;;;5051318;28;20416;-57
2023/10/21 13:01:28;;;;;;;;;;;;;;;;;;5049472;28;19919;-57
2023/10/21 13:03:56;;;;;;;;;;;;;;;;;;5051916;28;20296;-57
2023/10/21 13:06:22;;;;;;;;;;;;;;;;;;5049504;28;19917;-55
2023/10/21 13:08:50;;;;;;;;;;;;;;;;;;5046241;28;19944;-58
2023/10/21 13:11:17;;;;;;;;;;;;;;;;;;5050719;28;19913;-58
2023/10/21 13:13:43;;;;;;;;;;;;;;;;;;5027670;28;20368;-58
2023/10/21 13:16:09;;;;;;;;;;;;;;;;;;5045743;28;20021;-59
2023/10/21 13:18:35;;;;;;;;;;;;;;;;;;5055785;28;19999;-58
2023/10/21 13:21:01;;;;;;;;;;;;;;;;;;5046757;28;20357;-58
2023/10/21 13:23:27;;;;;;;;;;;;;;;;;;5048677;28;19927;-57
2023/10/21 13:25:53;;;;;;;;;;;;;;;;;;5049660;28;20373;-57
2023/10/21 13:28:19;;;;;;;;;;;;;;;;;;5047490;28;19960;-57
2023/10/21 13:30:48;;;;;;;;;;;;;;;;;;5047237;28;19923;-57
2023/10/21 13:33:14;;;;;;;;;;;;;;;;;;5047578;28;19938;-57
2023/10/21 13:35:40;;;;;;;;;;;;;;;;;;5051182;28;19998;-57
2023/10/21 13:38:08;;;;;;;;;;;;;;;;;;5046875;28;20285;-57
2023/10/21 13:40:34;;;;;;;;;;;;;;;;;;5041626;28;19923;-58
2023/10/21 13:43:00;;;;;;;;;;;;;;;;;;5049634;28;19952;-58
2023/10/21 13:45:30;;;;;;;;;;;;;;;;;;5044357;28;19964;-59
2023/10/21 13:47:56;;;;;;;;;;;;;;;;;;5043569;28;20007;-57
2023/10/21 13:50:25;;;;;;;;;;;;;;;;;;5043149;28;20047;-58
2023/10/21 13:52:52;;;;;;;;;;;;;;;;;;5046144;28;19975;-58
2023/10/21 13:55:17;;;;;;;;;;;;;;;;;;5033782;28;19927;-58
2023/10/21 13:57:45;;;;;;;;;;;;;;;;;;5050838;28;20381;-58
2023/10/21 14:00:25;;;;;;;;;;;;;;;;;;5044536;28;20008;-57
2023/10/21 14:02:51;;;;;;;;;;;;;;;;;;5049906;28;19959;-58
2023/10/21 14:05:17;;;;;;;;;;;;;;;;;;5046954;28;19968;-58
2023/10/21 14:07:43;;;;;;;;;;;;;;;;;;5046609;28;19951;-57
2023/10/21 14:10:09;;;;;;;;;;;;;;;;;;5045052;28;20450;-58
2023/10/21 14:12:35;;;;;;;;;;;;;;;;;;5045661;28;19971;-57
2023/10/21 14:15:10;;;;;;;;;;;;;;;;;;5046820;28;19952;-57
2023/10/21 14:17:36;;;;;;;;;;;;;;;;;;5046038;28;20292;-58
2023/10/21 14:20:04;;;;;;;;;;;;;;;;;;5042166;28;19921;-57
2023/10/21 14:22:30;;;;;;;;;;;;;;;;;;5050022;28;19993;-57
2023/10/21 14:24:56;;;;;;;;;;;;;;;;;;5047706;28;20090;-57
2023/10/21 14:27:22;;;;;;;;;;;;;;;;;;5051998;28;20003;-57
2023/10/21 14:29:48;;;;;;;;;;;;;;;;;;5050020;28;19924;-58
2023/10/21 14:32:16;;;;;;;;;;;;;;;;;;5047224;28;20302;-57
2023/10/21 14:34:42;;;;;;;;;;;;;;;;;;5049735;28;19981;-58
2023/10/21 14:37:08;;;;;;;;;;;;;;;;;;5051640;28;20412;-58
2023/10/21 14:39:34;;;;;;;;;;;;;;;;;;5041208;28;19930;-58
2023/10/21 14:41:59;;;;;;;;;;;;;;;;;;5038286;28;19913;-57
2023/10/21 14:44:25;;;;;;;;;;;;;;;;;;5034138;28;19967;-58
2023/10/21 14:46:52;;;;;;;;;;;;;;;;;;5051490;28;20436;-58
2023/10/21 14:49:18;;;;;;;;;;;;;;;;;;5049732;28;19917;-57
2023/10/21 14:51:43;;;;;;;;;;;;;;;;;;5043971;28;20350;-57
2023/10/21 14:54:09;;;;;;;;;;;;;;;;;;5049304;28;19947;-58
2023/10/21 14:56:35;;;;;;;;;;;;;;;;;;5049986;28;19924;-58
2023/10/21 14:59:01;;;;;;;;;;;;;;;;;;5049983;28;19955;-57
2023/10/21 15:01:27;;;;;;;;;;;;;;;;;;5047102;28;19921;-60
2023/10/21 15:03:53;;;;;;;;;;;;;;;;;;5045131;28;19919;-59
2023/10/21 15:06:19;;;;;;;;;;;;;;;;;;5047611;28;20329;-57
2023/10/21 15:08:45;;;;;;;;;;;;;;;;;;5047017;28;20031;-58
2023/10/21 15:11:11;;;;;;;;;;;;;;;;;;5046492;28;20004;-59
2023/10/21 15:13:37;;;;;;;;;;;;;;;;;;5051396;28;19909;-57
2023/10/21 15:16:04;;;;;;;;;;;;;;;;;;5051289;28;19959;-58
2023/10/21 15:18:30;;;;;;;;;;;;;;;;;;5043422;28;20011;-57
2023/10/21 15:20:56;;;;;;;;;;;;;;;;;;5045943;28;19999;-58
2023/10/21 15:23:23;;;;;;;;;;;;;;;;;;5037570;28;19929;-57
2023/10/21 15:25:49;;;;;;;;;;;;;;;;;;5044225;28;19947;-58
2023/10/21 15:28:15;;;;;;;;;;;;;;;;;;5051322;28;19913;-58
2023/10/21 15:30:41;;;;;;;;;;;;;;;;;;5042889;28;19912;-58
2023/10/21 15:33:07;;;;;;;;;;;;;;;;;;5047434;28;20384;-58
2023/10/21 15:35:33;;;;;;;;;;;;;;;;;;5048998;28;19920;-57
2023/10/21 15:38:01;;;;;;;;;;;;;;;;;;5045062;28;22402;-58
2023/10/21 15:40:27;;;;;;;;;;;;;;;;;;5049041;28;19943;-57
2023/10/21 15:42:53;;;;;;;;;;;;;;;;;;5041086;28;19920;-57
2023/10/21 15:45:19;;;;;;;;;;;;;;;;;;5051620;28;19913;-57
2023/10/21 15:47:45;;;;;;;;;;;;;;;;;;5042743;28;19912;-58
2023/10/21 15:50:11;;;;;;;;;;;;;;;;;;5047658;28;19920;-58
2023/10/21 15:52:37;;;;;;;;;;;;;;;;;;5043214;28;20450;-57
2023/10/21 15:55:05;;;;;;;;;;;;;;;;;;5052244;28;20001;-57
2023/10/21 15:57:32;;;;;;;;;;;;;;;;;;5043823;28;19917;-57
2023/10/21 15:59:58;;;;;;;;;;;;;;;;;;5045253;28;19978;-57
2023/10/21 16:02:24;;;;;;;;;;;;;;;;;;5051552;28;20388;-58
2023/10/21 16:04:50;;;;;;;;;;;;;;;;;;5051877;28;20441;-57
2023/10/21 16:07:16;;;;;;;;;;;;;;;;;;5050152;28;19970;-58
2023/10/21 16:09:43;;;;;;;;;;;;;;;;;;5049375;28;20273;-61
2023/10/21 16:12:08;;;;;;;;;;;;;;;;;;5050914;28;19929;-58
2023/10/21 16:14:35;;;;;;;;;;;;;;;;;;5049119;28;19959;-58
2023/10/21 16:17:03;;;;;;;;;;;;;;;;;;5051440;28;19916;-58
2023/10/21 16:19:29;;;;;;;;;;;;;;;;;;5050342;28;19921;-58
2023/10/21 16:21:57;;;;;;;;;;;;;;;;;;5051592;28;20108;-58
2023/10/21 16:24:23;;;;;;;;;;;;;;;;;;5052204;28;19921;-57
2023/10/21 16:26:49;;;;;;;;;;;;;;;;;;5048802;28;19979;-58
2023/10/21 16:29:15;;;;;;;;;;;;;;;;;;5055607;28;19955;-58
2023/10/21 16:31:41;;;;;;;;;;;;;;;;;;5050696;28;19917;-58
2023/10/21 16:34:07;;;;;;;;;;;;;;;;;;5053454;28;19971;-58
2023/10/21 16:36:33;;;;;;;;;;;;;;;;;;5052896;28;19962;-57
2023/10/21 16:38:58;;;;;;;;;;;;;;;;;;5035208;28;19950;-58
2023/10/21 16:41:24;;;;;;;;;;;;;;;;;;5051819;28;19994;-57
2023/10/21 16:43:52;;;;;;;;;;;;;;;;;;5049013;28;20216;-58
2023/10/21 16:46:18;;;;;;;;;;;;;;;;;;5049953;28;19960;-58
2023/10/21 16:48:44;;;;;;;;;;;;;;;;;;5049622;28;20475;-58
2023/10/21 16:51:09;;;;;;;;;;;;;;;;;;5052042;28;19992;-58
2023/10/21 16:53:35;;;;;;;;;;;;;;;;;;5050878;28;19956;-57
2023/10/21 16:56:02;;;;;;;;;;;;;;;;;;5048314;28;19943;-57
2023/10/21 16:58:28;;;;;;;;;;;;;;;;;;5050960;28;20563;-58
2023/10/21 17:00:54;;;;;;;;;;;;;;;;;;5045977;28;19949;-57
2023/10/21 17:03:20;;;;;;;;;;;;;;;;;;5046862;28;19912;-57
2023/10/21 17:05:46;;;;;;;;;;;;;;;;;;5050711;28;20025;-58
2023/10/21 17:08:12;;;;;;;;;;;;;;;;;;5051833;28;19912;-58
2023/10/21 17:10:38;;;;;;;;;;;;;;;;;;5049607;28;19916;-58